Machala, Ecuador

8:06 AM ECT on July 06, 2015 (GMT -0500)
Machala, El Oro, Ecuador | | Change Station
CLOSE
Current Station
Personal Weather Station
Location: El Cambio, EL ORO
Elevation: 20 ft
Nearby Weather Stations

Elev 20 ft 3.30 °S, 79.90 °W | Updated 10 minutes ago

Scattered Clouds
Scattered Clouds
76.4 °F
Feels Like 77 °F
N
0.0
Wind Variable Wind from ENE
Gusts 0.0 mph

Today
High -- | Low -- °F
--% Chance of Precip.
Yesterday
High -- | Low -- °F
Precip. -- in
6:26 AM 6:22 PM
Waning Gibbous, 75% visible
Pressure 29.89 in
Visibility 6.2 miles
Clouds Scattered Clouds 13300 ft
Heat Index 77 °F
Dew Point 74 °F
Humidity 92%
Rainfall 0.00 in
Snow Depth Not available.
UV 0.0 out of 12
Pollen Not available.
Air Quality Not available.
Flu Activity Not available.
METAR SERO 061300Z 11003KT 080V140 9999 SCT133 24/24 Q1012

More Conditions Fewer Conditions

Pressure 29.89 in
Visibility 6.2 miles
Clouds Scattered Clouds 13300 ft
Heat Index 77 °F
Dew Point 74 °F
Humidity 92%
Rainfall 0.00 in
Snow Depth Not available.
UV 0.0 out of 12
Pollen Not available.
Air Quality Not available.
Flu Activity Not available.
METAR SERO 061300Z 11003KT 080V140 9999 SCT133 24/24 Q1012

More Conditions Fewer Conditions

10-Day Weather Forecast

×

Almanac

Astronomy

Jul. 06, 2015 Rise Set
Actual Time
Civil Twilight
Nautical Twilight
Astronomical Twilight
Moon
Length of Visible Light
Length of Day
Tomorrow will be .
, % of the Moon is Illuminated

Today's Extremes

Country Highs Country Lows

Community

WunderPhotos

Upload Photos

1,835,550 photos uploaded!

WunderBlogs® & News

Nearby

Air Quality

  Air Quality AQ Index Pollutant
Not available.

Snow Depth

Station Depth Elevation

Earthquake Activity

City Distance Mag. Time & Date
Minimum magnitude displayed is 2.5.

Coastal Water Temperatures

Place Temperature

Stations

Nearby Weather Stations

Station Location Temp. Windchill Dew Point Humidity Wind Precip. Elev Updated Type